createdAt,value
2019-03-26T00:00:25.915Z,24.83
2019-03-26T00:02:57.175Z,22.73
2019-03-26T00:05:28.176Z,27.10
2019-03-26T00:07:59.381Z,25.23
2019-03-26T00:10:30.565Z,23.07
2019-03-26T00:13:01.649Z,23.90
2019-03-26T00:15:32.955Z,22.93
2019-03-26T00:18:04.167Z,23.73
2019-03-26T00:20:35.315Z,23.47
2019-03-26T00:23:06.383Z,24.53
2019-03-26T00:25:37.613Z,23.93
2019-03-26T00:28:08.684Z,17.40
2019-03-26T00:30:39.722Z,26.73
2019-03-26T00:33:10.791Z,25.43
2019-03-26T00:35:41.799Z,25.90
2019-03-26T00:38:12.942Z,27.30
2019-03-26T00:40:44.004Z,22.57
2019-03-26T00:43:15.067Z,26.23
2019-03-26T00:45:46.141Z,28.83
2019-03-26T00:48:17.289Z,26.73
2019-03-26T00:50:48.264Z,22.73
2019-03-26T00:53:19.354Z,27.43
2019-03-26T00:55:50.419Z,29.10
2019-03-26T00:58:21.447Z,24.63
2019-03-26T01:00:52.603Z,25.93
2019-03-26T01:03:23.689Z,28.33
2019-03-26T01:05:54.762Z,28.70
2019-03-26T01:08:25.870Z,25.53
2019-03-26T01:10:57.001Z,24.67
2019-03-26T01:13:28.017Z,27.43
2019-03-26T01:15:59.071Z,27.77
2019-03-26T01:18:30.267Z,22.20
2019-03-26T01:21:01.412Z,27.30
2019-03-26T01:23:32.453Z,22.70
2019-03-26T01:26:03.576Z,26.23
2019-03-26T01:28:34.587Z,26.80
2019-03-26T01:31:05.579Z,27.57
2019-03-26T01:33:36.673Z,22.10
2019-03-26T01:36:07.763Z,19.60
2019-03-26T01:38:38.830Z,25.30
2019-03-26T01:41:09.913Z,26.23
2019-03-26T01:43:42.093Z,27.20
2019-03-26T01:46:13.165Z,26.63
2019-03-26T01:48:44.179Z,26.53
2019-03-26T01:51:15.282Z,25.07
2019-03-26T01:53:46.337Z,27.63
2019-03-26T01:56:17.439Z,29.87
2019-03-26T01:58:48.522Z,28.83
2019-03-26T02:01:19.689Z,26.03
2019-03-26T02:03:50.705Z,24.33
2019-03-26T02:06:21.792Z,26.60
2019-03-26T02:08:52.845Z,37.10
2019-03-26T02:11:23.896Z,36.43
2019-03-26T02:13:54.902Z,44.47
2019-03-26T02:16:26.058Z,63.43
2019-03-26T02:18:57.217Z,73.93
2019-03-26T02:21:29.317Z,55.50
2019-03-26T02:24:00.629Z,52.30
2019-03-26T02:26:31.794Z,47.13
2019-03-26T02:29:03.407Z,41.43
2019-03-26T02:31:35.588Z,36.93
2019-03-26T02:34:06.678Z,34.07
2019-03-26T02:36:37.808Z,35.23
2019-03-26T02:39:09.073Z,37.80
2019-03-26T02:41:40.269Z,37.33
2019-03-26T02:44:11.389Z,43.60
2019-03-26T02:46:42.403Z,44.60
2019-03-26T02:49:13.456Z,37.73
2019-03-26T02:51:44.591Z,38.50
2019-03-26T02:54:15.662Z,30.87
2019-03-26T02:56:46.810Z,35.00
2019-03-26T02:59:18.053Z,34.90
2019-03-26T03:01:49.116Z,41.43
2019-03-26T03:04:20.284Z,36.73
2019-03-26T03:06:51.333Z,37.07
2019-03-26T03:09:22.369Z,37.43
2019-03-26T03:11:53.408Z,35.40
2019-03-26T03:14:24.452Z,33.53
2019-03-26T03:16:55.559Z,35.53
2019-03-26T03:19:26.812Z,36.47
2019-03-26T03:21:57.885Z,40.07
2019-03-26T03:24:28.896Z,35.43
2019-03-26T03:26:59.929Z,34.77
2019-03-26T03:29:30.948Z,34.10
2019-03-26T03:32:02.023Z,37.47
2019-03-26T03:34:33.202Z,33.67
2019-03-26T03:37:04.217Z,35.37
2019-03-26T03:39:35.383Z,34.73
2019-03-26T03:42:06.598Z,34.40
2019-03-26T03:44:37.796Z,33.50
2019-03-26T03:47:10.631Z,34.10
2019-03-26T03:49:41.847Z,56.53
2019-03-26T03:52:15.654Z,75.40
2019-03-26T03:54:48.283Z,52.70
2019-03-26T03:57:20.991Z,55.20
2019-03-26T03:59:53.884Z,87.87
2019-03-26T04:02:24.984Z,68.90
2019-03-26T04:04:56.052Z,57.23
2019-03-26T04:07:27.089Z,56.77
2019-03-26T04:09:58.117Z,46.83
2019-03-26T04:12:29.329Z,37.40
2019-03-26T04:15:00.681Z,37.80
2019-03-26T04:17:31.907Z,38.20
2019-03-26T04:20:02.943Z,31.13
2019-03-26T04:22:36.069Z,41.27
2019-03-26T04:25:07.418Z,39.27
2019-03-26T04:27:38.472Z,44.53
2019-03-26T04:30:10.759Z,41.27
2019-03-26T04:32:41.754Z,46.93
2019-03-26T04:35:12.929Z,57.17
2019-03-26T04:37:44.036Z,44.50
2019-03-26T04:40:15.103Z,45.03
2019-03-26T04:42:46.235Z,32.70
2019-03-26T04:45:17.346Z,59.63
2019-03-26T04:47:48.475Z,67.80
2019-03-26T04:50:19.547Z,72.33
2019-03-26T04:52:51.698Z,69.90
2019-03-26T04:55:22.827Z,54.47
2019-03-26T04:57:53.848Z,43.13
2019-03-26T05:00:25.044Z,40.93
2019-03-26T05:02:56.230Z,55.53
2019-03-26T05:05:27.316Z,41.50
2019-03-26T05:07:58.387Z,33.57
2019-03-26T05:10:29.428Z,33.40
2019-03-26T05:13:00.434Z,29.93
2019-03-26T05:15:31.545Z,33.40
2019-03-26T05:18:02.586Z,37.10
2019-03-26T05:20:33.856Z,31.60
2019-03-26T05:23:04.864Z,34.03
2019-03-26T05:25:36.036Z,37.00
2019-03-26T05:28:07.014Z,32.30
2019-03-26T05:30:38.108Z,43.67
2019-03-26T05:33:09.250Z,36.87
2019-03-26T05:35:40.334Z,43.53
2019-03-26T05:38:11.342Z,35.80
2019-03-26T05:40:42.478Z,76.57
2019-03-26T05:43:13.550Z,69.70
2019-03-26T05:45:44.596Z,67.37
2019-03-26T05:48:16.151Z,54.90
2019-03-26T05:50:47.259Z,40.07
2019-03-26T05:53:18.302Z,45.57
2019-03-26T05:55:49.342Z,46.27
2019-03-26T05:58:20.342Z,40.87
2019-03-26T06:00:51.432Z,42.37
2019-03-26T06:03:22.428Z,43.80
2019-03-26T06:05:53.416Z,42.23
2019-03-26T06:08:24.533Z,34.63
2019-03-26T06:10:55.588Z,42.63
2019-03-26T06:13:26.669Z,42.90
2019-03-26T06:15:57.824Z,37.17
2019-03-26T06:18:29.180Z,60.07
2019-03-26T06:21:00.226Z,43.57
2019-03-26T06:23:32.314Z,36.43
2019-03-26T06:26:03.426Z,33.27
2019-03-26T06:28:34.528Z,33.53
2019-03-26T06:31:05.599Z,35.00
2019-03-26T06:33:38.840Z,37.77
2019-03-26T06:36:09.934Z,43.90
2019-03-26T06:38:40.945Z,39.63
2019-03-26T06:41:11.982Z,36.13
2019-03-26T06:43:42.996Z,51.57
2019-03-26T06:46:14.096Z,63.83
2019-03-26T06:48:45.287Z,60.50
2019-03-26T06:51:16.386Z,77.40
2019-03-26T06:53:47.455Z,79.03
2019-03-26T06:56:18.561Z,74.77
2019-03-26T06:58:49.585Z,60.40
2019-03-26T07:01:20.808Z,75.97
2019-03-26T07:03:51.882Z,64.57
2019-03-26T07:06:22.926Z,39.47
2019-03-26T07:08:54.472Z,28.93
2019-03-26T07:11:25.601Z,32.20
2019-03-26T07:13:56.751Z,22.23
2019-03-26T07:16:27.728Z,40.37
2019-03-26T07:18:59.772Z,43.17
2019-03-26T07:21:31.907Z,34.60
2019-03-26T07:24:03.057Z,30.73
2019-03-26T07:26:34.043Z,21.33
2019-03-26T07:29:05.090Z,22.87
2019-03-26T07:31:36.123Z,25.83
2019-03-26T07:34:07.318Z,40.03
2019-03-26T07:36:38.640Z,39.57
2019-03-26T07:39:10.644Z,36.47
2019-03-26T07:41:41.665Z,22.33
2019-03-26T07:44:12.766Z,22.43
2019-03-26T07:46:43.821Z,20.30
2019-03-26T07:49:15.006Z,24.37
2019-03-26T07:51:46.046Z,21.47
2019-03-26T07:54:17.192Z,24.43
2019-03-26T07:56:48.304Z,22.53
2019-03-26T07:59:19.432Z,21.23
2019-03-26T08:01:50.592Z,20.33
2019-03-26T08:04:21.992Z,19.23
2019-03-26T08:06:53.040Z,23.37
2019-03-26T08:09:24.326Z,21.43
2019-03-26T08:11:55.463Z,19.93
2019-03-26T08:14:26.512Z,12.63
2019-03-26T08:16:57.569Z,18.83
2019-03-26T08:19:28.547Z,20.63
2019-03-26T08:21:59.580Z,15.90
2019-03-26T08:24:30.621Z,15.47
2019-03-26T08:27:01.787Z,16.50
2019-03-26T08:29:32.737Z,25.10
2019-03-26T08:32:03.764Z,44.90
2019-03-26T08:34:34.857Z,31.40
2019-03-26T08:37:05.896Z,41.37
2019-03-26T08:39:36.989Z,46.53
2019-03-26T08:42:08.023Z,30.60
2019-03-26T08:44:39.042Z,26.57
2019-03-26T08:47:10.089Z,15.40
2019-03-26T08:49:41.193Z,14.17
2019-03-26T08:52:12.185Z,12.67
2019-03-26T08:54:43.335Z,16.13
2019-03-26T08:57:14.414Z,11.43
2019-03-26T08:59:45.567Z,18.30
2019-03-26T09:02:16.609Z,13.60
2019-03-26T09:04:47.724Z,13.37
2019-03-26T09:07:18.752Z,15.47
2019-03-26T09:09:49.806Z,13.57
2019-03-26T09:12:21.797Z,15.17
2019-03-26T09:14:52.820Z,16.90
2019-03-26T09:17:24.796Z,13.87
2019-03-26T09:19:55.772Z,13.87
2019-03-26T09:22:26.996Z,13.97
2019-03-26T09:24:58.078Z,12.27
2019-03-26T09:27:29.237Z,15.67
2019-03-26T09:30:00.292Z,11.27
2019-03-26T09:32:31.355Z,14.63
2019-03-26T09:35:02.530Z,13.67
2019-03-26T09:37:33.642Z,11.67
2019-03-26T09:40:04.802Z,14.90
2019-03-26T09:42:35.943Z,14.23
2019-03-26T09:45:09.572Z,10.53
2019-03-26T09:47:40.632Z,11.53
2019-03-26T09:50:12.617Z,13.50
2019-03-26T09:52:43.746Z,12.30
2019-03-26T09:55:14.838Z,12.70
2019-03-26T09:57:45.950Z,17.00
2019-03-26T10:00:17.352Z,16.87
2019-03-26T10:02:48.474Z,20.23
2019-03-26T10:05:19.653Z,16.70
2019-03-26T10:07:50.944Z,15.47
2019-03-26T10:10:21.988Z,12.47
2019-03-26T10:12:53.086Z,12.97
2019-03-26T10:15:24.179Z,13.00
2019-03-26T10:17:55.274Z,12.90
2019-03-26T10:20:26.444Z,9.87
2019-03-26T10:22:57.956Z,11.40
2019-03-26T10:25:28.935Z,11.83
2019-03-26T10:28:00.087Z,10.37
2019-03-26T10:30:36.015Z,15.50
2019-03-26T10:33:07.644Z,10.87
2019-03-26T10:35:38.687Z,10.20
2019-03-26T10:38:09.795Z,11.13
2019-03-26T10:40:40.966Z,7.47
2019-03-26T10:43:12.009Z,12.33
2019-03-26T10:45:44.136Z,12.50
2019-03-26T10:48:15.218Z,7.13
2019-03-26T10:50:46.388Z,7.90
2019-03-26T10:53:17.416Z,10.13
2019-03-26T10:55:48.501Z,10.47
2019-03-26T10:58:19.631Z,34.63
2019-03-26T11:00:50.955Z,10.03
2019-03-26T11:03:22.137Z,13.07
2019-03-26T11:05:54.354Z,16.67
2019-03-26T11:08:25.480Z,11.30
2019-03-26T11:10:56.594Z,16.80
2019-03-26T11:13:27.757Z,16.27
2019-03-26T11:15:58.899Z,15.30
2019-03-26T11:18:30.010Z,15.30
2019-03-26T11:21:03.178Z,12.63
2019-03-26T11:23:33.725Z,15.67
2019-03-26T11:26:04.811Z,7.80
2019-03-26T11:28:35.886Z,9.20
2019-03-26T11:31:08.129Z,13.93
2019-03-26T11:33:39.202Z,7.40
2019-03-26T11:36:11.316Z,11.07
2019-03-26T11:38:42.342Z,9.20
2019-03-26T11:41:13.444Z,11.10
2019-03-26T11:43:44.500Z,14.67
2019-03-26T11:46:15.550Z,7.17
2019-03-26T11:48:46.690Z,11.40
2019-03-26T11:51:17.700Z,6.83
2019-03-26T11:53:48.728Z,13.30
2019-03-26T11:56:19.766Z,20.07
2019-03-26T11:58:50.903Z,11.27
2019-03-26T12:01:21.938Z,10.43
2019-03-26T12:03:53.086Z,8.93
2019-03-26T12:06:24.245Z,9.13
2019-03-26T12:08:55.273Z,19.10
2019-03-26T12:11:26.443Z,8.27
2019-03-26T12:13:57.444Z,8.87
2019-03-26T12:16:28.646Z,9.83
2019-03-26T12:18:59.800Z,10.90
2019-03-26T12:21:30.828Z,13.33
2019-03-26T12:24:02.013Z,11.03
2019-03-26T12:26:33.182Z,12.20
2019-03-26T12:29:04.256Z,11.27
2019-03-26T12:31:35.413Z,16.07
2019-03-26T12:34:06.773Z,8.80
2019-03-26T12:36:40.083Z,17.70
2019-03-26T12:39:10.924Z,19.37
2019-03-26T12:41:41.989Z,23.33
2019-03-26T12:44:13.107Z,24.47
2019-03-26T12:46:44.132Z,22.23
2019-03-26T12:49:15.294Z,19.63
2019-03-26T12:51:46.521Z,24.20
2019-03-26T12:54:17.650Z,15.53
2019-03-26T12:56:48.682Z,20.23
2019-03-26T12:59:19.850Z,19.73
2019-03-26T13:01:50.991Z,20.27
2019-03-26T13:04:22.076Z,18.90
2019-03-26T13:06:53.211Z,26.07
2019-03-26T13:09:24.362Z,15.57
2019-03-26T13:11:55.463Z,17.57
2019-03-26T13:14:26.572Z,25.23
2019-03-26T13:16:57.801Z,26.73
2019-03-26T13:19:28.744Z,23.57
2019-03-26T13:21:59.813Z,27.37
2019-03-26T13:24:30.926Z,20.03
2019-03-26T13:27:02.000Z,22.73
2019-03-26T13:29:33.058Z,22.00
2019-03-26T13:32:04.076Z,19.50
2019-03-26T13:34:35.171Z,28.20
2019-03-26T13:37:06.267Z,29.67
2019-03-26T13:39:37.333Z,29.50
2019-03-26T13:42:08.388Z,23.73
2019-03-26T13:44:39.423Z,24.93
2019-03-26T13:47:10.477Z,21.63
2019-03-26T13:49:41.574Z,17.30
2019-03-26T13:52:12.594Z,20.23
2019-03-26T13:54:43.691Z,14.30
2019-03-26T13:57:14.730Z,18.47
2019-03-26T13:59:48.826Z,22.83
2019-03-26T14:02:18.532Z,13.70
2019-03-26T14:04:49.617Z,15.47
2019-03-26T14:07:20.739Z,12.77
2019-03-26T14:09:51.838Z,17.23
2019-03-26T14:12:22.908Z,15.83
2019-03-26T14:14:53.993Z,15.30
2019-03-26T14:17:25.069Z,9.97
2019-03-26T14:19:56.100Z,11.27
2019-03-26T14:22:27.138Z,10.27
2019-03-26T14:24:58.162Z,11.17
2019-03-26T14:27:29.397Z,9.33
2019-03-26T14:30:00.554Z,13.30
2019-03-26T14:32:31.776Z,11.87
2019-03-26T14:35:02.818Z,11.67
2019-03-26T14:37:33.978Z,17.93
2019-03-26T14:40:06.857Z,16.10
2019-03-26T14:42:37.990Z,13.30
2019-03-26T14:45:09.894Z,17.87
2019-03-26T14:47:41.149Z,20.07
2019-03-26T14:50:12.672Z,12.10
2019-03-26T14:52:43.965Z,6.80
2019-03-26T14:55:15.119Z,11.80
2019-03-26T14:57:47.812Z,11.93
2019-03-26T15:00:18.993Z,12.43
2019-03-26T15:02:50.792Z,18.83
2019-03-26T15:05:21.986Z,17.33
2019-03-26T15:07:53.121Z,14.53
2019-03-26T15:10:24.199Z,13.07
2019-03-26T15:12:56.284Z,11.37
2019-03-26T15:15:27.421Z,12.03
2019-03-26T15:17:58.653Z,26.20
2019-03-26T15:20:30.776Z,12.37
2019-03-26T15:23:01.933Z,11.97
2019-03-26T15:25:32.978Z,20.17
2019-03-26T15:28:04.057Z,16.53
2019-03-26T15:30:35.274Z,9.30
2019-03-26T15:33:06.885Z,16.47
2019-03-26T15:35:38.869Z,6.80
2019-03-26T15:38:09.933Z,8.33
2019-03-26T15:40:41.075Z,12.93
2019-03-26T15:43:12.125Z,13.13
2019-03-26T15:45:43.345Z,19.83
2019-03-26T15:48:14.445Z,12.87
2019-03-26T15:50:46.765Z,10.53
2019-03-26T15:53:17.891Z,11.77
2019-03-26T15:55:48.976Z,15.93
2019-03-26T15:58:20.110Z,9.93
2019-03-26T16:00:51.210Z,11.53
2019-03-26T16:03:22.711Z,12.87
2019-03-26T16:05:53.833Z,15.27
2019-03-26T16:08:25.277Z,8.33
2019-03-26T16:10:56.699Z,15.83
2019-03-26T16:13:28.800Z,13.10
2019-03-26T16:16:00.073Z,15.77
2019-03-26T16:18:31.222Z,11.07
2019-03-26T16:21:02.403Z,16.57
2019-03-26T16:23:33.617Z,13.70
2019-03-26T16:26:05.820Z,13.90
2019-03-26T16:28:38.058Z,19.87
2019-03-26T16:31:09.119Z,16.63
2019-03-26T16:33:40.331Z,13.10
2019-03-26T16:36:11.490Z,10.83
2019-03-26T16:38:42.727Z,13.73
2019-03-26T16:41:13.798Z,9.87
2019-03-26T16:43:44.829Z,12.40
2019-03-26T16:46:15.998Z,14.17
2019-03-26T16:48:47.173Z,10.43
2019-03-26T16:51:18.267Z,15.00
2019-03-26T16:53:49.333Z,16.13
2019-03-26T16:56:20.543Z,8.40
2019-03-26T16:58:51.691Z,14.23
2019-03-26T17:01:22.799Z,14.53
2019-03-26T17:03:53.915Z,12.83
2019-03-26T17:06:24.986Z,10.13
2019-03-26T17:08:56.165Z,13.43
2019-03-26T17:11:27.292Z,17.23
2019-03-26T17:13:58.332Z,10.90
2019-03-26T17:16:29.503Z,13.43
2019-03-26T17:19:00.542Z,10.93
2019-03-26T17:21:31.581Z,10.50
2019-03-26T17:24:02.572Z,17.50
2019-03-26T17:26:33.559Z,10.57
2019-03-26T17:29:04.584Z,16.30
2019-03-26T17:31:35.735Z,12.27
2019-03-26T17:34:06.837Z,20.13
2019-03-26T17:36:38.007Z,14.00
2019-03-26T17:39:10.931Z,18.73
2019-03-26T17:41:42.105Z,15.40
2019-03-26T17:44:13.468Z,17.60
2019-03-26T17:46:44.518Z,21.67
2019-03-26T17:49:15.708Z,13.07
2019-03-26T17:51:46.785Z,15.57
2019-03-26T17:54:17.866Z,15.50
2019-03-26T17:56:49.198Z,21.90
2019-03-26T17:59:20.346Z,21.30
2019-03-26T18:01:54.372Z,24.23
2019-03-26T18:04:24.615Z,24.90
2019-03-26T18:06:55.769Z,18.53
2019-03-26T18:09:26.808Z,18.00
2019-03-26T18:11:57.884Z,14.47
2019-03-26T18:14:29.015Z,26.60
2019-03-26T18:17:00.073Z,11.77
2019-03-26T18:19:31.139Z,25.90
2019-03-26T18:22:02.197Z,48.27
2019-03-26T18:24:33.440Z,45.57
2019-03-26T18:27:04.648Z,34.67
2019-03-26T18:29:35.779Z,21.13
2019-03-26T18:32:06.878Z,17.60
2019-03-26T18:34:38.042Z,12.30
2019-03-26T18:37:09.256Z,14.47
2019-03-26T18:39:40.381Z,22.07
2019-03-26T18:42:11.614Z,15.03
2019-03-26T18:44:43.897Z,14.47
2019-03-26T18:47:15.122Z,20.93
2019-03-26T18:49:46.299Z,14.13
2019-03-26T18:52:17.514Z,24.83
2019-03-26T18:54:48.757Z,16.20
2019-03-26T18:57:19.914Z,11.53
2019-03-26T18:59:51.019Z,14.10
2019-03-26T19:02:22.049Z,16.30
2019-03-26T19:04:53.146Z,12.23
2019-03-26T19:07:24.286Z,16.80
2019-03-26T19:09:55.469Z,20.67
2019-03-26T19:12:26.580Z,15.23
2019-03-26T19:14:57.693Z,20.07
2019-03-26T19:17:28.702Z,36.63
2019-03-26T19:19:59.822Z,57.93
2019-03-26T19:22:30.886Z,32.00
2019-03-26T19:25:01.919Z,19.63
2019-03-26T19:27:33.050Z,13.83
2019-03-26T19:30:04.152Z,10.53
2019-03-26T19:32:36.376Z,12.37
2019-03-26T19:35:09.123Z,13.03
2019-03-26T19:37:40.242Z,12.60
2019-03-26T19:40:11.275Z,12.20
2019-03-26T19:42:42.388Z,11.87
2019-03-26T19:45:15.040Z,13.30
2019-03-26T19:47:47.365Z,13.63
2019-03-26T19:50:18.595Z,13.93
2019-03-26T19:52:49.716Z,15.80
2019-03-26T19:55:20.892Z,11.77
2019-03-26T19:57:51.884Z,13.33
2019-03-26T20:00:23.206Z,15.97
2019-03-26T20:02:54.202Z,15.10
2019-03-26T20:05:25.366Z,11.57
2019-03-26T20:07:56.467Z,19.13
2019-03-26T20:10:27.897Z,18.03
2019-03-26T20:12:59.007Z,16.37
2019-03-26T20:15:30.096Z,11.90
2019-03-26T20:18:01.126Z,11.20
2019-03-26T20:20:33.380Z,19.27
2019-03-26T20:23:04.544Z,14.90
2019-03-26T20:25:36.283Z,16.20
2019-03-26T20:28:07.390Z,18.57
2019-03-26T20:30:38.485Z,12.27
2019-03-26T20:33:09.654Z,10.07
2019-03-26T20:35:41.802Z,12.80
2019-03-26T20:38:13.067Z,12.90
2019-03-26T20:40:45.152Z,15.50
2019-03-26T20:43:16.213Z,18.17
2019-03-26T20:45:47.336Z,11.80
2019-03-26T20:48:18.482Z,12.77
2019-03-26T20:50:49.627Z,16.60
2019-03-26T20:53:20.783Z,15.07
2019-03-26T20:55:54.580Z,11.70
2019-03-26T20:58:25.166Z,16.97
2019-03-26T21:00:56.358Z,13.60
2019-03-26T21:03:28.931Z,14.10
2019-03-26T21:06:00.045Z,16.57
2019-03-26T21:08:32.437Z,16.57
2019-03-26T21:11:03.724Z,14.33
2019-03-26T21:13:34.842Z,17.30
2019-03-26T21:16:05.962Z,20.47
2019-03-26T21:18:37.134Z,21.13
2019-03-26T21:21:08.147Z,15.20
2019-03-26T21:23:39.281Z,23.57
2019-03-26T21:26:10.427Z,18.60
2019-03-26T21:28:41.776Z,18.37
2019-03-26T21:31:13.805Z,14.53
2019-03-26T21:33:44.918Z,21.07
2019-03-26T21:36:15.976Z,20.20
2019-03-26T21:38:46.986Z,23.10
2019-03-26T21:41:18.108Z,17.57
2019-03-26T21:43:49.101Z,23.70
2019-03-26T21:46:20.111Z,26.77
2019-03-26T21:48:51.406Z,17.77
2019-03-26T21:51:22.446Z,18.07
2019-03-26T21:53:53.715Z,22.07
2019-03-26T21:56:24.832Z,19.13
2019-03-26T21:58:55.966Z,21.07
2019-03-26T22:01:27.035Z,23.73
2019-03-26T22:03:58.050Z,25.87
2019-03-26T22:06:29.106Z,23.00
2019-03-26T22:09:00.158Z,27.97
2019-03-26T22:11:31.144Z,23.00
2019-03-26T22:14:02.209Z,24.30
2019-03-26T22:16:33.304Z,17.77
2019-03-26T22:19:04.520Z,27.90
2019-03-26T22:21:36.819Z,24.63
2019-03-26T22:24:07.834Z,19.83
2019-03-26T22:26:38.872Z,21.60
2019-03-26T22:29:09.870Z,20.63
2019-03-26T22:31:40.977Z,24.00
2019-03-26T22:34:11.926Z,26.63
2019-03-26T22:36:42.942Z,26.83
2019-03-26T22:39:13.976Z,26.20
2019-03-26T22:41:44.996Z,21.67
2019-03-26T22:44:15.957Z,25.23
2019-03-26T22:46:47.040Z,28.07
2019-03-26T22:49:18.026Z,25.23
2019-03-26T22:51:50.089Z,15.80
2019-03-26T22:54:21.054Z,24.90
2019-03-26T22:56:52.043Z,25.03
2019-03-26T22:59:23.106Z,21.63
2019-03-26T23:01:54.142Z,18.80
2019-03-26T23:04:25.304Z,19.07
2019-03-26T23:06:56.322Z,18.37
2019-03-26T23:09:27.496Z,9.43
2019-03-26T23:11:58.551Z,15.30
2019-03-26T23:14:29.714Z,15.63
2019-03-26T23:17:00.758Z,11.83
2019-03-26T23:19:31.895Z,11.73
2019-03-26T23:22:02.908Z,14.60
2019-03-26T23:24:33.952Z,16.00
2019-03-26T23:27:04.992Z,12.27
2019-03-26T23:29:36.073Z,13.30
2019-03-26T23:32:07.388Z,14.20
2019-03-26T23:34:38.454Z,12.83
2019-03-26T23:37:09.465Z,13.00
2019-03-26T23:39:40.528Z,13.87
2019-03-26T23:42:11.587Z,11.30
2019-03-26T23:44:42.592Z,11.23
2019-03-26T23:47:13.646Z,11.60
2019-03-26T23:49:44.649Z,8.30
2019-03-26T23:52:15.702Z,12.00
2019-03-26T23:54:46.747Z,9.97
2019-03-26T23:57:17.765Z,9.07
2019-03-26T23:59:48.828Z,8.07
